Humberside, United Kingdom

2:55 AM BST on August 28, 2015 (GMT +0100)
Scampton | | Change Station
CLOSE
Current Station
Airport
Location: Humberside,
Elevation: 200 ft
Nearby Weather Stations

Elev 200 ft 53.31 °N, 0.55 °W | Updated 1 hour ago

Clear
Clear
52 °F
Feels Like 52 °F
N
9
Wind Variable Wind from SSW

Today
High -- | Low -- °F
--% Chance of Precip.
Yesterday
High -- | Low -- °F
Precip. -- in
6:04 AM 8:01 PM
Waxing Gibbous, 96% visible
Pressure 29.80 in
Visibility 6.2 miles
Clouds
Dew Point 48 °F
Humidity 88%
Rainfall 0.00 in
Snow Depth Not available.
UV Not available.
Pollen Not available.
Air Quality Not available.
Flu Activity Not available.
METAR EGXP 280050Z AUTO 21008KT 9999 // NCD 11/09 Q1009
Pressure 29.80 in
Visibility 6.2 miles
Clouds
Dew Point 48 °F
Humidity 88%
Rainfall 0.00 in
Snow Depth Not available.
UV Not available.
Pollen Not available.
Air Quality Not available.
Flu Activity Not available.
METAR EGXP 280050Z AUTO 21008KT 9999 // NCD 11/09 Q1009

10-Day Weather Forecast

×

Almanac

Astronomy

Aug. 28, 2015 Rise Set
Actual Time
Civil Twilight
Nautical Twilight
Astronomical Twilight
Moon
Length of Visible Light
Length of Day
Tomorrow will be .
, % of the Moon is Illuminated

Today's Extremes

Country Highs Country Lows

Community

WunderPhotos

Upload Photos

1,850,296 photos uploaded!

WunderBlogs® & News

Nearby

Air Quality

  Air Quality AQ Index Pollutant
Not available.

Snow Depth

Station Depth Elevation

Earthquake Activity

City Distance Mag. Time & Date
Minimum magnitude displayed is 2.5.

Coastal Water Temperatures

Place Temperature

Stations

Nearby Weather Stations

Station Location Temp. Windchill Dew Point Humidity Wind Precip. Elev Updated Type